createdAt,value
2023-05-10T00:01:15.457Z,1.20
2023-05-10T00:03:43.452Z,1.27
2023-05-10T00:06:11.364Z,1.20
2023-05-10T00:08:39.211Z,1.30
2023-05-10T00:11:07.073Z,1.27
2023-05-10T00:13:35.083Z,1.50
2023-05-10T00:16:03.003Z,1.20
2023-05-10T00:18:32.183Z,0.90
2023-05-10T00:20:59.976Z,1.00
2023-05-10T00:23:27.795Z,1.23
2023-05-10T00:25:55.611Z,1.30
2023-05-10T00:28:23.477Z,1.20
2023-05-10T00:30:51.331Z,1.50
2023-05-10T00:33:19.272Z,1.13
2023-05-10T00:35:48.587Z,1.30
2023-05-10T00:38:16.416Z,1.40
2023-05-10T00:40:44.987Z,1.30
2023-05-10T00:43:12.810Z,1.40
2023-05-10T00:45:42.300Z,1.47
2023-05-10T00:48:10.534Z,1.20
2023-05-10T00:50:38.602Z,1.20
2023-05-10T00:53:08.025Z,1.50
2023-05-10T00:55:35.870Z,1.53
2023-05-10T00:58:04.223Z,1.30
2023-05-10T01:00:32.319Z,1.37
2023-05-10T01:03:00.859Z,1.50
2023-05-10T01:05:28.986Z,1.60
2023-05-10T01:07:57.958Z,1.40
2023-05-10T01:10:27.292Z,1.60
2023-05-10T01:12:55.161Z,1.30
2023-05-10T01:15:23.305Z,1.33
2023-05-10T01:17:51.354Z,1.60
2023-05-10T01:20:19.468Z,1.60
2023-05-10T01:23:14.547Z,1.77
2023-05-10T01:26:21.682Z,1.60
2023-05-10T01:29:42.310Z,1.77
2023-05-10T01:32:31.052Z,1.80
2023-05-10T01:35:04.540Z,1.50
2023-05-10T01:37:42.697Z,2.00
2023-05-10T01:40:19.645Z,1.93
2023-05-10T01:42:51.943Z,2.07
2023-05-10T01:45:27.197Z,1.87
2023-05-10T01:48:10.455Z,1.67
2023-05-10T01:50:40.417Z,1.60
2023-05-10T01:53:10.256Z,1.80
2023-05-10T01:55:44.981Z,1.60
2023-05-10T01:58:16.140Z,1.50
2023-05-10T02:00:46.575Z,1.50
2023-05-10T02:03:17.882Z,1.83
2023-05-10T02:05:47.842Z,1.80
2023-05-10T02:08:16.689Z,1.70
2023-05-10T02:10:46.832Z,1.70
2023-05-10T02:13:16.293Z,1.47
2023-05-10T02:15:45.304Z,1.40
2023-05-10T02:18:16.342Z,1.53
2023-05-10T02:20:45.425Z,1.47
2023-05-10T02:23:13.578Z,1.60
2023-05-10T02:25:43.331Z,1.50
2023-05-10T02:28:13.720Z,1.37
2023-05-10T02:30:41.901Z,1.60
2023-05-10T02:33:10.337Z,1.43
2023-05-10T02:35:40.379Z,1.20
2023-05-10T02:38:09.389Z,1.53
2023-05-10T02:40:39.335Z,1.50
2023-05-10T02:43:08.221Z,1.50
2023-05-10T02:45:39.877Z,1.60
2023-05-10T02:48:08.283Z,1.30
2023-05-10T02:50:37.728Z,1.53
2023-05-10T02:53:13.588Z,1.60
2023-05-10T02:55:43.882Z,1.57
2023-05-10T02:58:11.736Z,1.27
2023-05-10T03:00:39.575Z,1.30
2023-05-10T03:03:07.820Z,1.50
2023-05-10T03:05:35.682Z,1.50
2023-05-10T03:08:05.191Z,1.60
2023-05-10T03:10:35.982Z,1.70
2023-05-10T03:13:28.164Z,1.40
2023-05-10T03:16:08.821Z,1.40
2023-05-10T03:18:43.247Z,1.57
2023-05-10T03:21:13.959Z,1.70
2023-05-10T03:23:45.524Z,1.50
2023-05-10T03:26:19.206Z,1.80
2023-05-10T03:28:49.556Z,2.03
2023-05-10T03:31:17.468Z,2.10
2023-05-10T03:33:49.269Z,1.73
2023-05-10T03:36:17.179Z,1.80
2023-05-10T03:38:45.056Z,1.70
2023-05-10T03:41:13.175Z,2.03
2023-05-10T03:43:42.493Z,2.00
2023-05-10T03:46:10.541Z,1.60
2023-05-10T03:48:38.347Z,2.00
2023-05-10T03:51:06.329Z,1.67
2023-05-10T03:53:34.134Z,1.90
2023-05-10T03:56:01.981Z,1.80
2023-05-10T03:58:29.779Z,1.70
2023-05-10T04:00:58.958Z,1.67
2023-05-10T04:03:27.448Z,1.73
2023-05-10T04:06:01.623Z,1.87
2023-05-10T04:08:29.836Z,1.47
2023-05-10T04:11:07.042Z,1.73
2023-05-10T04:13:34.831Z,1.90
2023-05-10T04:16:04.267Z,1.80
2023-05-10T04:18:32.214Z,1.57
2023-05-10T04:21:00.106Z,1.70
2023-05-10T04:23:28.509Z,1.50
2023-05-10T04:26:01.807Z,2.70
2023-05-10T04:28:29.704Z,1.70
2023-05-10T04:31:04.889Z,2.13
2023-05-10T04:33:33.430Z,1.30
2023-05-10T04:36:01.698Z,1.50
2023-05-10T04:38:29.659Z,1.60
2023-05-10T04:41:06.068Z,1.80
2023-05-10T04:43:34.013Z,1.43
2023-05-10T04:46:01.945Z,1.90
2023-05-10T04:48:31.122Z,1.67
2023-05-10T04:50:58.945Z,1.80
2023-05-10T04:53:26.776Z,1.57
2023-05-10T04:55:54.644Z,1.60
2023-05-10T04:58:22.517Z,1.90
2023-05-10T05:00:50.332Z,1.50
2023-05-10T05:03:18.273Z,1.77
2023-05-10T05:05:47.845Z,2.07
2023-05-10T05:08:15.937Z,2.00
2023-05-10T05:10:43.708Z,1.73
2023-05-10T05:13:11.582Z,2.10
2023-05-10T05:15:39.389Z,1.70
2023-05-10T05:18:07.223Z,2.10
2023-05-10T05:20:35.361Z,1.93
2023-05-10T05:23:04.539Z,1.83
2023-05-10T05:25:32.517Z,1.90
2023-05-10T05:28:00.424Z,1.90
2023-05-10T05:30:28.448Z,1.80
2023-05-10T05:32:56.321Z,2.07
2023-05-10T05:35:24.156Z,2.00
2023-05-10T05:37:51.978Z,1.97
2023-05-10T05:40:21.814Z,1.77
2023-05-10T05:42:50.135Z,1.73
2023-05-10T05:45:18.482Z,1.57
2023-05-10T05:47:46.550Z,1.30
2023-05-10T05:50:14.557Z,1.50
2023-05-10T05:52:42.380Z,1.40
2023-05-10T05:55:10.505Z,1.60
2023-05-10T05:57:39.644Z,1.57
2023-05-10T06:00:08.903Z,1.67
2023-05-10T06:02:36.950Z,1.50
2023-05-10T06:05:05.286Z,1.53
2023-05-10T06:07:33.123Z,1.40
2023-05-10T06:10:01.176Z,1.07
2023-05-10T06:12:28.943Z,1.93
2023-05-10T06:14:58.091Z,1.40
2023-05-10T06:17:26.086Z,1.47
2023-05-10T06:19:53.925Z,1.57
2023-05-10T06:22:23.595Z,1.67
2023-05-10T06:24:51.562Z,1.67
2023-05-10T06:27:19.399Z,1.57
2023-05-10T06:29:47.206Z,1.70
2023-05-10T06:32:16.387Z,2.97
2023-05-10T06:34:44.702Z,2.00
2023-05-10T06:37:12.596Z,1.93
2023-05-10T06:39:40.496Z,2.20
2023-05-10T06:42:08.570Z,1.83
2023-05-10T06:44:36.457Z,1.70
2023-05-10T06:47:04.303Z,2.10
2023-05-10T06:49:33.493Z,1.83
2023-05-10T06:52:01.295Z,1.90
2023-05-10T06:54:29.094Z,1.97
2023-05-10T06:56:57.006Z,1.80
2023-05-10T06:59:25.103Z,1.90
2023-05-10T07:01:53.070Z,1.70
2023-05-10T07:04:20.887Z,1.70
2023-05-10T07:06:50.580Z,2.40
2023-05-10T07:09:18.761Z,1.87
2023-05-10T07:11:46.576Z,1.40
2023-05-10T07:14:14.368Z,1.83
2023-05-10T07:16:42.345Z,1.97
2023-05-10T07:19:10.389Z,1.60
2023-05-10T07:21:38.662Z,1.90
2023-05-10T07:24:08.158Z,1.63
2023-05-10T07:26:36.135Z,1.93
2023-05-10T07:29:04.011Z,1.83
2023-05-10T07:31:31.863Z,2.10
2023-05-10T07:33:59.755Z,2.33
2023-05-10T07:36:27.616Z,2.10
2023-05-10T07:38:55.609Z,1.80
2023-05-10T07:41:24.898Z,2.23
2023-05-10T07:43:53.020Z,2.57
2023-05-10T07:46:21.313Z,1.90
2023-05-10T07:48:49.165Z,1.77
2023-05-10T07:51:17.470Z,1.80
2023-05-10T07:53:45.292Z,2.03
2023-05-10T07:56:26.078Z,2.13
2023-05-10T07:58:54.022Z,1.90
2023-05-10T08:01:22.120Z,2.03
2023-05-10T08:03:50.414Z,1.80
2023-05-10T08:06:19.493Z,2.20
2023-05-10T08:08:50.250Z,2.10
2023-05-10T08:11:18.646Z,1.50
2023-05-10T08:13:48.041Z,2.27
2023-05-10T08:16:16.490Z,2.07
2023-05-10T08:18:45.871Z,1.77
2023-05-10T08:21:13.740Z,1.80
2023-05-10T08:23:41.604Z,1.50
2023-05-10T08:26:09.438Z,1.50
2023-05-10T08:28:37.203Z,1.50
2023-05-10T08:31:06.609Z,1.40
2023-05-10T08:33:34.695Z,2.00
2023-05-10T08:36:02.478Z,1.80
2023-05-10T08:38:30.274Z,1.53
2023-05-10T08:40:59.347Z,1.40
2023-05-10T08:43:29.727Z,1.50
2023-05-10T08:45:58.363Z,1.90
2023-05-10T08:48:30.854Z,1.53
2023-05-10T08:51:00.967Z,1.63
2023-05-10T08:53:30.665Z,1.63
2023-05-10T08:55:59.684Z,1.50
2023-05-10T08:58:27.725Z,1.27
2023-05-10T09:00:56.054Z,1.50
2023-05-10T09:03:23.957Z,1.97
2023-05-10T09:05:53.214Z,1.57
2023-05-10T09:08:22.051Z,1.40
2023-05-10T09:10:50.771Z,1.60
2023-05-10T09:13:20.502Z,1.43
2023-05-10T09:15:49.015Z,1.27
2023-05-10T09:18:16.885Z,1.40
2023-05-10T09:20:44.873Z,1.30
2023-05-10T09:23:14.049Z,1.70
2023-05-10T09:25:43.698Z,1.40
2023-05-10T09:28:11.860Z,1.40
2023-05-10T09:30:40.199Z,1.43
2023-05-10T09:33:08.797Z,1.30
2023-05-10T09:35:37.069Z,1.33
2023-05-10T09:38:06.403Z,1.50
2023-05-10T09:40:35.820Z,1.20
2023-05-10T09:43:06.832Z,1.40
2023-05-10T09:45:38.557Z,1.20
2023-05-10T09:48:07.902Z,1.17
2023-05-10T09:50:35.992Z,1.10
2023-05-10T09:53:05.286Z,1.20
2023-05-10T09:55:45.045Z,1.30
2023-05-10T09:58:13.418Z,1.10
2023-05-10T10:00:42.389Z,1.30
2023-05-10T10:03:16.233Z,1.20
2023-05-10T10:05:45.886Z,1.10
2023-05-10T10:08:14.377Z,1.10
2023-05-10T10:10:46.343Z,1.10
2023-05-10T10:13:14.941Z,1.03
2023-05-10T10:15:44.902Z,1.00
2023-05-10T10:18:16.214Z,1.13
2023-05-10T10:20:44.469Z,1.63
2023-05-10T10:23:12.336Z,1.00
2023-05-10T10:25:40.765Z,1.10
2023-05-10T10:28:23.818Z,1.13
2023-05-10T10:30:56.264Z,1.73
2023-05-10T10:33:42.064Z,1.00
2023-05-10T10:36:10.423Z,1.20
2023-05-10T10:38:40.434Z,1.40
2023-05-10T10:41:12.907Z,1.13
2023-05-10T10:43:42.124Z,1.20
2023-05-10T10:46:15.426Z,1.20
2023-05-10T10:48:48.903Z,1.23
2023-05-10T10:51:16.826Z,1.10
2023-05-10T10:53:45.491Z,1.30
2023-05-10T10:56:16.219Z,1.00
2023-05-10T10:58:53.418Z,1.40
2023-05-10T11:01:21.727Z,1.30
2023-05-10T11:04:21.038Z,1.27
2023-05-10T11:06:49.063Z,1.20
2023-05-10T11:09:16.871Z,1.30
2023-05-10T11:11:52.918Z,1.10
2023-05-10T11:14:24.315Z,1.33
2023-05-10T11:16:52.483Z,1.30
2023-05-10T11:19:21.181Z,1.50
2023-05-10T11:21:51.595Z,1.30
2023-05-10T11:24:20.982Z,1.60
2023-05-10T11:26:52.361Z,1.47
2023-05-10T11:29:20.880Z,1.73
2023-05-10T11:31:50.965Z,1.30
2023-05-10T11:34:25.944Z,1.30
2023-05-10T11:36:55.069Z,1.47
2023-05-10T11:39:23.008Z,1.30
2023-05-10T11:41:51.476Z,1.50
2023-05-10T11:44:19.390Z,1.40
2023-05-10T11:46:47.259Z,1.50
2023-05-10T11:49:16.429Z,1.40
2023-05-10T11:51:44.558Z,1.30
2023-05-10T11:54:13.459Z,1.40
2023-05-10T11:56:42.867Z,1.20
2023-05-10T11:59:10.697Z,2.07
2023-05-10T12:01:38.670Z,1.17
2023-05-10T12:04:06.797Z,1.00
2023-05-10T12:06:42.949Z,0.97
2023-05-10T12:09:11.154Z,1.20
2023-05-10T12:11:44.009Z,1.00
2023-05-10T12:14:12.554Z,0.80
2023-05-10T12:16:40.845Z,0.90
2023-05-10T12:19:08.898Z,0.90
2023-05-10T12:21:39.692Z,1.03
2023-05-10T12:24:07.729Z,1.20
2023-05-10T12:26:37.462Z,1.00
2023-05-10T12:29:16.509Z,0.83
2023-05-10T12:31:54.827Z,1.10
2023-05-10T12:34:27.710Z,1.13
2023-05-10T12:36:57.686Z,1.00
2023-05-10T12:39:25.774Z,1.20
2023-05-10T12:41:53.925Z,1.20
2023-05-10T12:44:21.794Z,1.33
2023-05-10T12:46:49.673Z,1.00
2023-05-10T12:49:17.788Z,1.10
2023-05-10T12:51:45.561Z,1.10
2023-05-10T12:54:14.736Z,1.40
2023-05-10T12:56:43.656Z,1.47
2023-05-10T12:59:11.455Z,0.97
2023-05-10T13:01:39.484Z,0.90
2023-05-10T13:04:07.474Z,0.93
2023-05-10T13:06:36.058Z,0.90
2023-05-10T13:09:04.528Z,1.10
2023-05-10T13:11:33.787Z,2.33
2023-05-10T13:14:01.675Z,2.30
2023-05-10T13:16:29.615Z,2.50
2023-05-10T13:18:57.490Z,3.50
2023-05-10T13:21:26.233Z,1.20
2023-05-10T13:23:54.884Z,1.80
2023-05-10T13:26:22.736Z,1.00
2023-05-10T13:28:52.800Z,0.80
2023-05-10T13:31:21.533Z,1.20
2023-05-10T13:33:49.567Z,1.10
2023-05-10T13:36:17.384Z,0.90
2023-05-10T13:38:45.234Z,0.90
2023-05-10T13:41:13.028Z,0.90
2023-05-10T13:43:40.793Z,0.80
2023-05-10T13:46:09.979Z,1.20
2023-05-10T13:48:39.163Z,1.10
2023-05-10T13:51:07.135Z,1.00
2023-05-10T13:53:35.485Z,1.23
2023-05-10T13:56:03.855Z,1.10
2023-05-10T13:58:31.811Z,1.00
2023-05-10T14:00:59.681Z,0.87
2023-05-10T14:03:29.057Z,0.80
2023-05-10T14:05:56.967Z,0.80
2023-05-10T14:08:24.763Z,0.80
2023-05-10T14:10:53.249Z,0.90
2023-05-10T14:13:21.128Z,1.10
2023-05-10T14:15:48.986Z,2.00
2023-05-10T14:18:16.890Z,1.97
2023-05-10T14:20:46.107Z,1.20
2023-05-10T14:23:14.650Z,1.10
2023-05-10T14:25:42.953Z,0.80
2023-05-10T14:28:11.659Z,1.30
2023-05-10T14:30:39.635Z,1.50
2023-05-10T14:33:08.861Z,2.17
2023-05-10T14:35:36.820Z,1.60
2023-05-10T14:38:06.333Z,1.50
2023-05-10T14:40:34.494Z,1.90
2023-05-10T14:43:02.412Z,1.27
2023-05-10T14:45:30.399Z,0.93
2023-05-10T14:47:58.692Z,0.73
2023-05-10T14:50:36.692Z,0.90
2023-05-10T14:53:06.784Z,0.80
2023-05-10T14:55:35.693Z,1.00
2023-05-10T14:58:04.369Z,0.80
2023-05-10T15:00:33.340Z,0.77
2023-05-10T15:03:01.706Z,0.93
2023-05-10T15:05:30.230Z,0.80
2023-05-10T15:07:58.403Z,0.97
2023-05-10T15:10:27.559Z,0.83
2023-05-10T15:12:55.376Z,0.90
2023-05-10T15:15:23.323Z,1.00
2023-05-10T15:17:51.431Z,1.60
2023-05-10T15:20:19.428Z,0.90
2023-05-10T15:22:47.210Z,1.20
2023-05-10T15:25:16.392Z,0.93
2023-05-10T15:27:45.797Z,0.90
2023-05-10T15:30:14.290Z,0.90
2023-05-10T15:32:42.185Z,1.23
2023-05-10T15:35:11.113Z,1.10
2023-05-10T15:37:38.994Z,1.07
2023-05-10T15:40:08.206Z,1.10
2023-05-10T15:42:36.280Z,1.43
2023-05-10T15:45:07.011Z,1.30
2023-05-10T15:47:34.949Z,1.10
2023-05-10T15:50:02.865Z,1.40
2023-05-10T15:52:30.726Z,1.00
2023-05-10T15:54:58.548Z,0.87
2023-05-10T15:57:26.436Z,1.53
2023-05-10T15:59:54.230Z,1.03
2023-05-10T16:02:23.567Z,1.60
2023-05-10T16:04:51.609Z,1.17
2023-05-10T16:07:19.403Z,1.10
2023-05-10T16:09:49.313Z,1.10
2023-05-10T16:12:17.199Z,0.90
2023-05-10T16:14:45.006Z,0.97
2023-05-10T16:17:13.112Z,1.03
2023-05-10T16:19:42.419Z,1.00
2023-05-10T16:22:10.363Z,1.10
2023-05-10T16:24:38.167Z,1.30
2023-05-10T16:27:05.993Z,1.10
2023-05-10T16:29:33.832Z,1.00
2023-05-10T16:32:01.833Z,0.90
2023-05-10T16:34:29.660Z,1.10
2023-05-10T16:36:58.837Z,1.27
2023-05-10T16:39:26.666Z,1.10
2023-05-10T16:41:54.474Z,1.27
2023-05-10T16:44:23.926Z,1.00
2023-05-10T16:46:54.930Z,1.00
2023-05-10T16:49:24.487Z,1.30
2023-05-10T16:51:53.862Z,1.20
2023-05-10T16:54:23.302Z,0.90
2023-05-10T16:56:51.149Z,0.90
2023-05-10T16:59:18.935Z,0.73
2023-05-10T17:01:47.106Z,1.00
2023-05-10T17:04:15.041Z,1.00
2023-05-10T17:06:43.026Z,1.00
2023-05-10T17:09:11.992Z,1.00
2023-05-10T17:11:42.057Z,0.70
2023-05-10T17:14:10.097Z,1.00
2023-05-10T17:16:37.954Z,0.80
2023-05-10T17:19:06.019Z,0.80
2023-05-10T17:21:33.883Z,0.80
2023-05-10T17:24:01.714Z,0.77
2023-05-10T17:26:29.993Z,1.00
2023-05-10T17:28:59.443Z,1.07
2023-05-10T17:31:27.588Z,1.00
2023-05-10T17:33:55.567Z,1.10
2023-05-10T17:36:23.447Z,1.23
2023-05-10T17:38:51.420Z,0.90
2023-05-10T17:41:19.567Z,0.90
2023-05-10T17:43:47.424Z,0.80
2023-05-10T17:46:17.115Z,1.17
2023-05-10T17:48:45.077Z,0.93
2023-05-10T17:51:13.017Z,1.00
2023-05-10T17:53:41.032Z,1.17
2023-05-10T17:56:09.558Z,0.90
2023-05-10T17:58:38.212Z,0.77
2023-05-10T18:01:06.613Z,0.80
2023-05-10T18:03:35.975Z,0.80
2023-05-10T18:06:04.693Z,0.87
2023-05-10T18:08:33.095Z,0.80
2023-05-10T18:11:00.933Z,0.80
2023-05-10T18:13:28.852Z,0.80
2023-05-10T18:15:56.871Z,0.93
2023-05-10T18:18:25.303Z,0.60
2023-05-10T18:20:57.566Z,0.80
2023-05-10T18:23:26.357Z,0.70
2023-05-10T18:25:54.352Z,0.70
2023-05-10T18:28:22.165Z,0.80
2023-05-10T18:30:49.986Z,0.90
2023-05-10T18:33:18.966Z,0.80
2023-05-10T18:35:47.464Z,0.93
2023-05-10T18:38:16.627Z,0.60
2023-05-10T18:40:44.511Z,0.60
2023-05-10T18:43:12.367Z,1.00
2023-05-10T18:45:40.128Z,0.80
2023-05-10T18:48:08.363Z,0.60
2023-05-10T18:50:36.209Z,0.70
2023-05-10T18:53:04.413Z,0.60
2023-05-10T18:55:33.671Z,0.70
2023-05-10T18:58:01.461Z,0.70
2023-05-10T19:00:29.243Z,0.77
2023-05-10T19:02:57.222Z,0.70
2023-05-10T19:05:29.920Z,0.90
2023-05-10T19:07:57.969Z,0.60
2023-05-10T19:10:25.891Z,0.70
2023-05-10T19:12:55.171Z,0.90
2023-05-10T19:15:23.429Z,0.80
2023-05-10T19:17:52.089Z,0.90
2023-05-10T19:20:20.081Z,0.77
2023-05-10T19:23:02.038Z,0.83
2023-05-10T19:25:35.836Z,0.83
2023-05-10T19:28:05.056Z,0.80
2023-05-10T19:30:32.894Z,0.70
2023-05-10T19:33:05.448Z,0.80
2023-05-10T19:35:33.464Z,0.73
2023-05-10T19:38:01.290Z,0.80
2023-05-10T19:40:29.070Z,0.80
2023-05-10T19:42:57.552Z,0.87
2023-05-10T19:45:26.761Z,0.90
2023-05-10T19:47:54.703Z,1.13
2023-05-10T19:50:22.542Z,0.90
2023-05-10T19:52:50.583Z,0.80
2023-05-10T19:55:28.977Z,1.00
2023-05-10T19:57:56.951Z,0.93
2023-05-10T20:00:27.248Z,0.90
2023-05-10T20:02:55.736Z,0.80
2023-05-10T20:05:23.794Z,0.90
2023-05-10T20:07:51.720Z,0.70
2023-05-10T20:10:19.652Z,0.70
2023-05-10T20:12:51.218Z,0.70
2023-05-10T20:15:20.165Z,0.70
2023-05-10T20:17:50.977Z,0.83
2023-05-10T20:20:19.988Z,1.00
2023-05-10T20:22:48.348Z,0.80
2023-05-10T20:25:16.971Z,0.90
2023-05-10T20:27:45.154Z,0.80
2023-05-10T20:30:13.734Z,0.80
2023-05-10T20:32:41.655Z,0.73
2023-05-10T20:35:11.854Z,0.83
2023-05-10T20:37:40.084Z,0.90
2023-05-10T20:40:08.944Z,1.00
2023-05-10T20:42:36.902Z,0.80
2023-05-10T20:45:05.232Z,0.90
2023-05-10T20:47:33.169Z,0.90
2023-05-10T20:50:01.031Z,1.00
2023-05-10T20:52:30.256Z,1.00
2023-05-10T20:54:58.035Z,0.80
2023-05-10T20:57:25.823Z,0.87
2023-05-10T20:59:54.580Z,0.93
2023-05-10T21:02:22.390Z,0.70
2023-05-10T21:04:50.276Z,1.00
2023-05-10T21:07:18.133Z,1.00
2023-05-10T21:09:47.255Z,0.90
2023-05-10T21:12:15.076Z,0.90
2023-05-10T21:14:43.037Z,0.90
2023-05-10T21:17:10.947Z,0.70
2023-05-10T21:19:38.801Z,1.00
2023-05-10T21:22:06.669Z,0.80
2023-05-10T21:24:35.014Z,1.13
2023-05-10T21:27:04.656Z,1.00
2023-05-10T21:29:32.464Z,0.90
2023-05-10T21:32:00.339Z,1.13
2023-05-10T21:34:28.207Z,1.03
2023-05-10T21:36:56.180Z,1.00
2023-05-10T21:39:23.968Z,0.90
2023-05-10T21:41:51.812Z,0.80
2023-05-10T21:44:21.035Z,1.03
2023-05-10T21:46:48.884Z,0.97
2023-05-10T21:49:16.661Z,0.90
2023-05-10T21:51:44.460Z,1.13
2023-05-10T21:54:12.247Z,0.97
2023-05-10T21:56:40.009Z,1.20
2023-05-10T21:59:07.787Z,0.90
2023-05-10T22:01:36.973Z,1.30
2023-05-10T22:04:04.822Z,1.10
2023-05-10T22:06:32.975Z,1.17
2023-05-10T22:09:00.830Z,1.37
2023-05-10T22:11:28.676Z,1.27
2023-05-10T22:13:56.480Z,1.10
2023-05-10T22:16:24.296Z,1.30
2023-05-10T22:18:54.450Z,1.33
2023-05-10T22:21:22.974Z,1.10
2023-05-10T22:23:50.944Z,1.20
2023-05-10T22:26:18.748Z,1.30
2023-05-10T22:28:46.555Z,1.17
2023-05-10T22:31:14.460Z,1.30
2023-05-10T22:33:42.230Z,1.40
2023-05-10T22:36:11.656Z,1.20
2023-05-10T22:38:39.491Z,1.33
2023-05-10T22:41:08.030Z,1.33
2023-05-10T22:43:35.859Z,1.53
2023-05-10T22:46:03.748Z,1.30
2023-05-10T22:48:32.366Z,1.20
2023-05-10T22:51:00.748Z,1.40
2023-05-10T22:53:29.893Z,1.40
2023-05-10T22:55:57.741Z,1.10
2023-05-10T22:58:25.672Z,1.13
2023-05-10T23:00:54.152Z,1.20
2023-05-10T23:03:21.982Z,1.10
2023-05-10T23:05:49.778Z,1.30
2023-05-10T23:08:18.112Z,1.30
2023-05-10T23:10:47.585Z,1.97
2023-05-10T23:13:15.412Z,1.37
2023-05-10T23:15:43.558Z,1.30
2023-05-10T23:18:12.716Z,1.27
2023-05-10T23:20:42.581Z,1.23
2023-05-10T23:23:10.407Z,1.53
2023-05-10T23:25:38.606Z,1.33
2023-05-10T23:28:07.838Z,1.40
2023-05-10T23:30:35.800Z,1.17
2023-05-10T23:33:03.665Z,1.30
2023-05-10T23:35:31.484Z,1.30
2023-05-10T23:37:59.248Z,1.30
2023-05-10T23:40:27.223Z,1.20
2023-05-10T23:42:54.985Z,1.20
2023-05-10T23:45:24.061Z,1.47
2023-05-10T23:47:52.696Z,1.70
2023-05-10T23:50:20.521Z,1.20
2023-05-10T23:52:48.318Z,1.20
2023-05-10T23:55:16.283Z,1.07
2023-05-10T23:57:44.100Z,1.20
